createdAt,value
2022-09-06T00:01:23.447Z,100371.84
2022-09-06T00:03:52.177Z,100417.16
2022-09-06T00:06:21.542Z,100583.00
2022-09-06T00:08:49.944Z,100616.13
2022-09-06T00:11:19.253Z,100604.72
2022-09-06T00:13:47.655Z,100597.72
2022-09-06T00:16:18.017Z,100600.31
2022-09-06T00:18:47.764Z,100366.53
2022-09-06T00:21:21.086Z,100376.97
2022-09-06T00:23:49.429Z,100594.06
2022-09-06T00:26:17.807Z,100363.38
2022-09-06T00:28:46.200Z,100406.09
2022-09-06T00:31:16.424Z,100602.19
2022-09-06T00:33:44.991Z,100465.84
2022-09-06T00:36:14.645Z,100394.19
2022-09-06T00:38:43.760Z,100642.81
2022-09-06T00:41:13.793Z,100604.41
2022-09-06T00:43:42.969Z,100660.94
2022-09-06T00:46:16.794Z,100663.84
2022-09-06T00:48:47.297Z,100529.56
2022-09-06T00:51:19.212Z,100580.59
2022-09-06T00:53:47.566Z,100696.66
2022-09-06T00:56:15.923Z,100680.00
2022-09-06T00:58:44.648Z,100503.13
2022-09-06T01:01:12.762Z,100400.34
2022-09-06T01:03:41.304Z,100454.53
2022-09-06T01:06:24.625Z,100687.50
2022-09-06T01:09:03.835Z,100682.31
2022-09-06T01:11:52.589Z,100589.81
2022-09-06T01:14:33.874Z,100508.28
2022-09-06T01:17:12.698Z,100683.97
2022-09-06T01:20:16.056Z,100506.22
2022-09-06T01:23:20.774Z,100562.69
2022-09-06T01:26:00.882Z,100494.81
2022-09-06T01:28:34.398Z,100531.81
2022-09-06T01:31:12.410Z,100457.38
2022-09-06T01:33:47.282Z,100658.56
2022-09-06T01:36:18.455Z,100658.22
2022-09-06T01:38:46.663Z,100465.72
2022-09-06T01:41:14.659Z,100577.28
2022-09-06T01:43:48.550Z,100529.16
2022-09-06T01:46:21.288Z,100505.91
2022-09-06T01:49:03.450Z,100408.66
2022-09-06T01:51:38.715Z,100369.59
2022-09-06T01:54:24.065Z,100550.94
2022-09-06T01:57:05.064Z,100404.50
2022-09-06T01:59:56.197Z,100659.16
2022-09-06T02:02:31.186Z,100368.38
2022-09-06T02:05:06.023Z,100454.09
2022-09-06T02:07:36.388Z,100683.44
2022-09-06T02:10:09.827Z,100534.84
2022-09-06T02:12:42.325Z,100506.13
2022-09-06T02:15:17.692Z,100688.41
2022-09-06T02:17:53.934Z,100582.25
2022-09-06T02:20:25.886Z,100694.94
2022-09-06T02:22:57.456Z,100500.72
2022-09-06T02:25:28.848Z,100495.16
2022-09-06T02:27:57.233Z,100595.63
2022-09-06T02:30:26.703Z,100447.44
2022-09-06T02:32:59.533Z,100687.41
2022-09-06T02:35:27.963Z,100599.34
2022-09-06T02:37:56.856Z,100505.81
2022-09-06T02:40:25.612Z,100657.88
2022-09-06T02:42:54.570Z,100548.53
2022-09-06T02:45:22.618Z,100694.88
2022-09-06T02:47:52.172Z,100572.03
2022-09-06T02:50:20.302Z,100667.88
2022-09-06T02:52:48.411Z,100536.34
2022-09-06T02:55:16.599Z,100383.19
2022-09-06T02:57:44.783Z,100547.63
2022-09-06T03:00:13.975Z,100640.06
2022-09-06T03:02:42.149Z,100470.31
2022-09-06T03:05:12.374Z,100653.84
2022-09-06T03:07:40.542Z,100357.53
2022-09-06T03:10:09.198Z,100496.81
2022-09-06T03:12:37.443Z,100643.69
2022-09-06T03:15:06.354Z,100429.56
2022-09-06T03:17:34.463Z,100470.31
2022-09-06T03:20:02.789Z,100634.84
2022-09-06T03:22:32.512Z,100544.03
2022-09-06T03:25:00.642Z,100638.97
2022-09-06T03:27:29.326Z,100435.97
2022-09-06T03:29:57.316Z,100526.59
2022-09-06T03:32:25.373Z,100423.53
2022-09-06T03:34:53.528Z,100642.34
2022-09-06T03:37:21.667Z,100513.66
2022-09-06T03:39:51.148Z,100431.72
2022-09-06T03:42:19.460Z,100550.03
2022-09-06T03:44:47.533Z,100393.25
2022-09-06T03:47:19.284Z,100611.78
2022-09-06T03:49:47.868Z,100605.09
2022-09-06T03:52:16.069Z,100337.44
2022-09-06T03:54:44.208Z,100559.19
2022-09-06T03:57:13.719Z,100399.41
2022-09-06T03:59:41.865Z,100525.81
2022-09-06T04:02:10.096Z,100533.63
2022-09-06T04:04:38.182Z,100476.91
2022-09-06T04:07:06.422Z,100612.47
2022-09-06T04:09:34.768Z,100531.22
2022-09-06T04:12:03.151Z,100615.78
2022-09-06T04:14:32.651Z,100612.78
2022-09-06T04:17:03.181Z,100611.50
2022-09-06T04:19:32.981Z,100553.31
2022-09-06T04:22:01.482Z,100396.50
2022-09-06T04:24:29.486Z,100604.19
2022-09-06T04:42:07.536Z,100603.91
2022-09-06T04:46:02.188Z,100602.88
2022-09-06T04:48:30.296Z,100558.31
2022-09-06T04:50:58.304Z,100612.94
2022-09-06T04:53:26.289Z,100614.91
2022-09-06T04:55:54.354Z,100582.38
2022-09-06T04:58:23.707Z,100611.84
2022-09-06T05:00:51.743Z,100561.78
2022-09-06T05:03:19.800Z,100581.38
2022-09-06T05:05:48.354Z,100363.06
2022-09-06T05:08:16.574Z,100559.91
2022-09-06T05:10:44.667Z,100600.34
2022-09-06T05:13:12.631Z,100602.94
2022-09-06T05:15:42.055Z,100625.84
2022-09-06T05:18:12.934Z,100623.25
2022-09-06T05:20:43.954Z,100626.75
2022-09-06T05:23:12.023Z,100627.72
2022-09-06T05:25:40.012Z,100634.59
2022-09-06T05:28:08.925Z,100634.50
2022-09-06T05:30:37.020Z,100643.91
2022-09-06T05:33:06.366Z,100576.66
2022-09-06T05:35:34.397Z,100637.81
2022-09-06T05:38:02.344Z,100638.50
2022-09-06T05:40:30.552Z,100633.97
2022-09-06T05:42:58.610Z,100599.59
2022-09-06T05:45:26.777Z,100637.84
2022-09-06T05:47:55.018Z,100630.78
2022-09-06T05:50:24.324Z,100573.13
2022-09-06T05:52:54.752Z,100610.22
2022-09-06T05:55:22.755Z,100608.84
2022-09-06T05:57:50.697Z,100628.66
2022-09-06T06:00:18.947Z,100605.31
2022-09-06T06:02:48.581Z,100553.66
2022-09-06T06:05:17.595Z,100619.66
2022-09-06T06:07:47.057Z,100610.03
2022-09-06T06:10:15.051Z,100616.81
2022-09-06T06:12:43.008Z,100622.94
2022-09-06T06:15:12.078Z,100616.72
2022-09-06T06:17:40.108Z,100619.25
2022-09-06T06:20:10.328Z,100566.16
2022-09-06T06:22:39.039Z,100608.25
2022-09-06T06:25:08.953Z,100606.50
2022-09-06T06:27:37.910Z,100608.13
2022-09-06T06:30:06.859Z,100607.78
2022-09-06T06:32:35.028Z,100603.56
2022-09-06T06:35:09.770Z,100560.00
2022-09-06T06:37:38.947Z,100543.75
2022-09-06T06:40:09.593Z,100528.59
2022-09-06T06:42:37.560Z,100609.81
2022-09-06T06:45:06.455Z,100612.94
2022-09-06T06:47:34.545Z,100612.81
2022-09-06T06:50:02.475Z,100612.19
2022-09-06T06:52:30.804Z,100565.56
2022-09-06T06:54:58.975Z,100603.63
2022-09-06T06:57:30.662Z,100583.59
2022-09-06T06:59:58.694Z,100575.97
2022-09-06T07:02:29.798Z,100573.06
2022-09-06T07:08:19.334Z,100603.72
2022-09-06T07:10:53.872Z,100608.66
2022-09-06T07:13:27.005Z,100590.19
2022-09-06T07:16:08.597Z,100606.63
2022-09-06T07:18:37.899Z,100578.47
2022-09-06T07:24:10.737Z,100602.44
2022-09-06T07:26:40.801Z,100593.69
2022-09-06T07:29:10.272Z,100567.88
2022-09-06T07:32:18.075Z,100519.13
2022-09-06T07:34:48.818Z,100586.56
2022-09-06T07:37:16.998Z,100584.38
2022-09-06T07:39:45.262Z,100533.53
2022-09-06T07:42:13.419Z,100544.53
2022-09-06T07:44:42.820Z,100587.78
2022-09-06T07:55:35.712Z,100548.66
2022-09-06T07:58:04.106Z,100553.91
2022-09-06T08:00:33.924Z,100513.25
2022-09-06T08:03:02.022Z,100536.13
2022-09-06T08:11:07.603Z,100420.50
2022-09-06T08:13:35.883Z,100571.00
2022-09-06T08:16:08.245Z,100572.53
2022-09-06T08:18:37.508Z,100428.31
2022-09-06T08:21:12.631Z,100578.47
2022-09-06T08:23:43.176Z,100510.81
2022-09-06T08:26:11.960Z,100568.78
2022-09-06T08:28:40.284Z,100536.63
2022-09-06T08:31:11.911Z,100550.09
2022-09-06T08:33:41.388Z,100567.44
2022-09-06T08:36:10.587Z,100505.84
2022-09-06T08:38:39.091Z,100565.22
2022-09-06T08:41:10.118Z,100521.25
2022-09-06T08:43:39.688Z,100537.09
2022-09-06T08:46:09.589Z,100560.63
2022-09-06T08:48:39.983Z,100426.16
2022-09-06T08:51:34.452Z,100518.19
2022-09-06T08:54:13.265Z,100555.66
2022-09-06T08:57:04.115Z,100495.06
2022-09-06T08:59:38.825Z,100515.94
2022-09-06T09:02:16.399Z,100442.38
2022-09-06T09:04:53.525Z,100489.31
2022-09-06T09:07:32.697Z,100414.81
2022-09-06T09:10:04.697Z,100525.56
2022-09-06T09:12:36.486Z,100538.41
2022-09-06T09:15:11.558Z,100406.53
2022-09-06T09:17:39.860Z,100531.53
2022-09-06T09:20:10.399Z,100535.03
2022-09-06T09:22:39.273Z,100525.28
2022-09-06T09:25:10.256Z,100514.44
2022-09-06T09:27:39.626Z,100520.94
2022-09-06T09:32:57.029Z,100515.25
2022-09-06T09:35:36.624Z,100402.47
2022-09-06T09:38:12.108Z,100456.50
2022-09-06T09:40:43.833Z,100513.91
2022-09-06T09:43:16.755Z,100507.38
2022-09-06T09:45:46.855Z,100502.06
2022-09-06T09:48:21.673Z,100456.81
2022-09-06T09:50:51.294Z,100471.91
2022-09-06T09:53:22.310Z,100450.75
2022-09-06T09:55:57.204Z,100454.22
2022-09-06T09:58:34.462Z,100445.34
2022-09-06T10:01:16.946Z,100458.38
2022-09-06T10:09:35.736Z,100474.81
2022-09-06T10:12:04.901Z,100480.44
2022-09-06T10:14:34.884Z,100435.28
2022-09-06T10:17:03.226Z,100464.06
2022-09-06T10:19:46.376Z,100447.31
2022-09-06T10:22:29.968Z,100444.38
2022-09-06T10:25:37.691Z,100463.22
2022-09-06T10:28:36.708Z,100464.22
2022-09-06T10:31:30.235Z,100464.41
2022-09-06T10:34:10.168Z,100447.63
2022-09-06T10:36:41.019Z,100346.47
2022-09-06T10:39:27.454Z,100474.19
2022-09-06T10:42:09.083Z,100471.81
2022-09-06T10:44:51.419Z,100461.47
2022-09-06T10:47:19.702Z,100306.16
2022-09-06T10:49:56.653Z,100328.22
2022-09-06T10:52:34.539Z,100441.09
2022-09-06T10:55:06.710Z,100408.06
2022-09-06T11:00:33.545Z,100350.72
2022-09-06T11:06:04.630Z,100414.06
2022-09-06T11:08:48.616Z,100443.25
2022-09-06T11:11:23.903Z,100381.34
2022-09-06T11:13:52.074Z,100393.94
2022-09-06T11:16:25.316Z,100446.09
2022-09-06T11:18:59.320Z,100428.25
2022-09-06T11:22:05.146Z,100389.53
2022-09-06T11:24:47.153Z,100414.31
2022-09-06T11:27:26.030Z,100255.38
2022-09-06T11:29:56.742Z,100420.19
2022-09-06T11:32:33.152Z,100423.53
2022-09-06T11:35:04.897Z,100411.34
2022-09-06T11:37:57.207Z,100410.97
2022-09-06T11:40:30.107Z,100367.72
2022-09-06T11:43:16.754Z,100398.91
2022-09-06T11:45:48.941Z,100350.34
2022-09-06T11:48:50.315Z,100392.38
2022-09-06T11:51:34.744Z,100385.09
2022-09-06T11:54:21.877Z,100311.81
2022-09-06T11:56:58.745Z,100388.09
2022-09-06T11:59:37.548Z,100385.03
2022-09-06T12:02:32.684Z,100242.81
2022-09-06T12:05:30.574Z,100380.13
2022-09-06T12:08:29.200Z,100371.25
2022-09-06T12:11:02.135Z,100302.25
2022-09-06T12:14:06.839Z,100373.31
2022-09-06T12:17:27.640Z,100393.16
2022-09-06T12:20:06.344Z,100395.81
2022-09-06T12:23:04.735Z,100355.63
2022-09-06T12:26:17.430Z,100380.78
2022-09-06T12:28:55.904Z,100220.94
2022-09-06T12:36:01.392Z,100399.25
2022-09-06T17:48:53.478Z,100242.25
2022-09-06T17:51:21.600Z,100222.91
2022-09-06T17:53:49.514Z,100283.06
2022-09-06T17:56:19.097Z,100275.41
2022-09-06T17:58:54.141Z,100304.16
2022-09-06T18:01:23.421Z,99902.88
2022-09-06T18:03:51.409Z,100057.03
2022-09-06T18:06:22.880Z,100195.53
2022-09-06T18:08:52.703Z,100286.81
2022-09-06T18:11:24.526Z,100140.84
2022-09-06T18:13:58.465Z,100202.19
2022-09-06T18:16:27.926Z,100256.06
2022-09-06T18:19:01.129Z,100250.41
2022-09-06T18:21:32.362Z,100284.31
2022-09-06T18:24:00.568Z,100187.53
2022-09-06T18:26:28.973Z,100165.25
2022-09-06T18:28:57.619Z,99840.25
2022-09-06T18:31:36.802Z,99923.56
2022-09-06T18:34:06.960Z,100309.56
2022-09-06T18:36:40.913Z,100284.63
2022-09-06T18:39:11.346Z,99987.19
2022-09-06T18:42:00.196Z,100283.41
2022-09-06T18:44:33.102Z,100271.97
2022-09-06T18:47:03.207Z,100057.63
2022-09-06T18:49:32.500Z,99863.88
2022-09-06T18:52:02.607Z,100200.75
2022-09-06T18:54:31.639Z,100102.44
2022-09-06T18:57:00.646Z,100019.94
2022-09-06T18:59:28.998Z,100293.25
2022-09-06T19:01:57.345Z,100296.38
2022-09-06T19:04:25.719Z,100313.81
2022-09-06T19:06:53.797Z,100297.78
2022-09-06T19:09:23.319Z,100292.16
2022-09-06T19:11:51.473Z,100297.06
2022-09-06T19:14:19.674Z,100283.34
2022-09-06T19:16:48.725Z,100273.28
2022-09-06T19:19:16.841Z,100267.63
2022-09-06T19:21:45.156Z,100262.78
2022-09-06T19:24:15.200Z,100278.09
2022-09-06T19:26:47.056Z,99775.59
2022-09-06T19:29:17.437Z,99921.31
2022-09-06T19:31:47.361Z,100266.53
2022-09-06T19:34:16.217Z,100108.81
2022-09-06T19:36:45.886Z,100262.69
2022-09-06T19:39:16.738Z,100253.94
2022-09-06T19:41:47.563Z,100097.16
2022-09-06T19:44:16.693Z,100244.09
2022-09-06T19:46:46.774Z,100250.19
2022-09-06T19:49:17.137Z,100084.31
2022-09-06T19:51:46.628Z,100276.84
2022-09-06T19:54:15.835Z,100239.28
2022-09-06T19:56:44.766Z,100006.47
2022-09-06T19:59:16.363Z,100261.31
2022-09-06T20:01:46.311Z,100254.53
2022-09-06T20:04:15.819Z,100208.28
2022-09-06T20:06:43.775Z,100252.22
2022-09-06T20:09:12.079Z,99988.41
2022-09-06T20:11:41.893Z,100246.50
2022-09-06T20:14:10.945Z,100026.09
2022-09-06T20:16:42.163Z,100256.28
2022-09-06T20:19:12.444Z,100276.56
2022-09-06T20:21:40.699Z,100116.84
2022-09-06T20:24:08.871Z,99920.19
2022-09-06T20:26:37.712Z,99848.78
2022-09-06T20:29:06.938Z,100288.09
2022-09-06T20:31:36.679Z,100296.38
2022-09-06T20:34:09.316Z,100286.50
2022-09-06T20:36:38.986Z,100092.34
2022-09-06T20:39:09.922Z,100328.31
2022-09-06T20:41:38.792Z,100340.88
2022-09-06T20:44:07.190Z,100228.88
2022-09-06T20:46:36.530Z,100324.59
2022-09-06T20:49:08.019Z,100223.81
2022-09-06T20:51:43.352Z,100388.53
2022-09-06T20:54:12.307Z,100199.41
2022-09-06T20:56:42.439Z,100214.75
2022-09-06T20:59:12.486Z,100307.94
2022-09-06T21:01:42.707Z,100077.47
2022-09-06T21:04:14.877Z,100213.66
2022-09-06T21:06:46.133Z,100373.91
2022-09-06T21:09:15.503Z,100300.66
2022-09-06T21:11:44.231Z,100365.09
2022-09-06T21:14:12.930Z,100082.13
2022-09-06T21:16:41.517Z,100314.13
2022-09-06T21:19:12.299Z,100356.06
2022-09-06T21:21:44.109Z,100191.00
2022-09-06T21:24:12.561Z,100221.97
2022-09-06T21:26:43.255Z,100366.19
2022-09-06T21:29:11.510Z,100327.19
2022-09-06T21:31:41.519Z,100281.72
2022-09-06T21:34:16.864Z,100353.03
2022-09-06T21:36:50.683Z,100196.81
2022-09-06T21:39:18.913Z,100061.22
2022-09-06T21:41:47.812Z,99922.38
2022-09-06T21:44:15.884Z,100154.84
2022-09-06T21:46:44.422Z,100211.84
2022-09-06T21:49:14.979Z,100336.31
2022-09-06T21:51:43.400Z,100314.72
2022-09-06T21:54:12.618Z,100096.31
2022-09-06T21:56:41.411Z,100245.75
2022-09-06T21:59:10.966Z,100173.03
2022-09-06T22:01:40.368Z,100178.84
2022-09-06T22:04:08.790Z,100187.25
2022-09-06T22:06:38.073Z,100136.03
2022-09-06T22:09:10.919Z,99950.31
2022-09-06T22:11:40.620Z,100121.34
2022-09-06T22:14:11.330Z,100031.81
2022-09-06T22:16:41.279Z,99955.97
2022-09-06T22:19:10.015Z,99795.16
2022-09-06T22:21:39.833Z,99998.06
2022-09-06T22:24:10.099Z,100084.56
2022-09-06T22:26:39.950Z,99570.47
2022-09-06T22:29:10.012Z,100048.66
2022-09-06T22:31:38.356Z,99925.09
2022-09-06T22:34:08.178Z,99846.94
2022-09-06T22:36:36.461Z,99774.81
2022-09-06T22:39:06.075Z,100026.50
2022-09-06T22:41:34.972Z,99953.69
2022-09-06T22:44:04.374Z,100157.63
2022-09-06T22:46:32.779Z,99826.28
2022-09-06T22:49:02.337Z,100076.78
2022-09-06T22:51:30.335Z,99986.19
2022-09-06T22:53:58.439Z,99845.19
2022-09-06T22:56:27.988Z,99681.41
2022-09-06T22:58:55.889Z,99744.28
2022-09-06T23:01:24.072Z,100188.84
2022-09-06T23:03:52.003Z,99934.19
2022-09-06T23:06:20.345Z,99883.94
2022-09-06T23:08:48.350Z,100126.41
2022-09-06T23:11:18.657Z,100208.03
2022-09-06T23:13:48.343Z,100023.63
2022-09-06T23:16:18.569Z,99840.13
2022-09-06T23:18:47.731Z,100056.06
2022-09-06T23:21:18.229Z,100225.19
2022-09-06T23:23:47.445Z,100244.56
2022-09-06T23:26:19.982Z,100252.81
2022-09-06T23:28:56.452Z,100138.44
2022-09-06T23:31:26.304Z,100277.50
2022-09-06T23:33:55.790Z,99954.28
2022-09-06T23:36:24.605Z,100313.66
2022-09-06T23:38:52.510Z,100241.28
2022-09-06T23:41:20.574Z,100311.94
2022-09-06T23:43:48.776Z,100042.13
2022-09-06T23:46:18.667Z,100418.75
2022-09-06T23:48:47.221Z,99948.66
2022-09-06T23:51:15.316Z,99820.28
2022-09-06T23:53:43.565Z,100132.84
2022-09-06T23:56:12.395Z,100068.50
2022-09-06T23:58:41.306Z,100460.81
